createdAt,value
2023-02-03T00:01:22.978Z,5.65
2023-02-03T00:11:25.839Z,5.65
2023-02-03T00:21:29.714Z,5.64
2023-02-03T00:31:32.373Z,5.63
2023-02-03T00:41:36.246Z,5.58
2023-02-03T00:51:38.707Z,5.67
2023-02-03T01:01:42.602Z,5.59
2023-02-03T01:11:45.116Z,5.51
2023-02-03T01:21:49.008Z,5.51
2023-02-03T01:31:51.665Z,5.56
2023-02-03T01:41:59.776Z,5.45
2023-02-03T01:52:02.708Z,5.50
2023-02-03T02:02:07.713Z,5.53
2023-02-03T02:12:10.849Z,5.61
2023-02-03T02:22:19.571Z,5.65
2023-02-03T02:32:30.189Z,5.64
2023-02-03T02:42:35.716Z,5.49
2023-02-03T02:52:45.016Z,5.60
2023-02-03T03:02:47.591Z,5.61
2023-02-03T03:12:53.780Z,5.54
2023-02-03T03:22:58.476Z,5.62
2023-02-03T03:33:02.433Z,5.63
2023-02-03T03:43:08.584Z,5.68
2023-02-03T03:53:13.418Z,5.63
2023-02-03T04:03:17.996Z,5.72
2023-02-03T04:13:25.504Z,5.75
2023-02-03T04:23:28.372Z,5.75
2023-02-03T04:33:32.237Z,5.81
2023-02-03T04:43:34.706Z,5.74
2023-02-03T04:53:38.741Z,5.69
2023-02-03T05:03:41.315Z,5.71
2023-02-03T05:13:45.234Z,5.69
2023-02-03T05:23:48.012Z,5.55
2023-02-03T05:33:51.837Z,5.66
2023-02-03T05:43:54.463Z,5.72
2023-02-03T05:53:58.348Z,5.70
2023-02-03T06:04:01.229Z,5.65
2023-02-03T06:14:05.328Z,5.65
2023-02-03T06:24:08.218Z,5.59
2023-02-03T06:34:15.006Z,5.48
2023-02-03T06:44:17.510Z,5.43
2023-02-03T06:54:21.822Z,5.41
2023-02-03T07:04:24.733Z,5.48
2023-02-03T07:14:29.027Z,5.53
2023-02-03T07:24:35.649Z,5.46
2023-02-03T07:34:39.649Z,5.61
2023-02-03T07:44:42.176Z,5.59
2023-02-03T07:54:46.061Z,5.59
2023-02-03T08:04:48.675Z,5.69
2023-02-03T08:14:52.572Z,5.71
2023-02-03T08:24:55.022Z,5.73
2023-02-03T08:34:58.856Z,5.83
2023-02-03T08:45:03.404Z,5.81
2023-02-03T08:55:09.132Z,5.84
2023-02-03T09:05:11.747Z,5.87
2023-02-03T09:15:20.283Z,5.85
2023-02-03T09:25:22.756Z,5.94
2023-02-03T09:35:29.250Z,6.18
2023-02-03T09:45:32.174Z,6.36
2023-02-03T09:55:38.159Z,6.44
2023-02-03T10:06:00.998Z,6.67
2023-02-03T10:16:15.136Z,6.84
2023-02-03T10:26:20.976Z,6.80
2023-02-03T10:36:31.563Z,6.94
2023-02-03T10:46:36.330Z,6.85
2023-02-03T10:56:40.854Z,6.74
2023-02-03T11:06:54.470Z,6.61
2023-02-03T11:16:58.441Z,6.61
2023-02-03T11:27:04.623Z,6.81
2023-02-03T11:37:22.070Z,6.75
2023-02-03T11:47:26.011Z,6.85
2023-02-03T11:57:35.292Z,6.78
2023-02-03T12:07:45.049Z,6.80
2023-02-03T12:18:05.788Z,6.78
2023-02-03T12:28:32.643Z,6.77
2023-02-03T12:38:40.741Z,6.79
2023-02-03T12:48:48.525Z,6.93
2023-02-03T12:58:53.754Z,6.88
2023-02-03T13:09:05.122Z,6.91
2023-02-03T13:19:09.205Z,6.90
2023-02-03T13:29:23.862Z,6.95
2023-02-03T13:39:34.145Z,6.96
2023-02-03T13:49:38.269Z,7.03
2023-02-03T13:59:42.573Z,7.06
2023-02-03T14:09:55.227Z,7.07
2023-02-03T14:19:57.764Z,7.06
2023-02-03T14:30:07.984Z,7.08
2023-02-03T14:40:21.954Z,7.14
2023-02-03T14:50:33.610Z,7.07
2023-02-03T15:00:37.537Z,7.07
2023-02-03T15:10:44.476Z,6.98
2023-02-03T15:20:47.968Z,6.90
2023-02-03T15:30:53.753Z,6.87
2023-02-03T15:40:58.623Z,6.84
2023-02-03T15:51:06.242Z,6.85
2023-02-03T16:01:10.730Z,6.85
2023-02-03T16:11:24.857Z,6.83
2023-02-03T16:21:42.333Z,6.78
2023-02-03T16:32:17.037Z,6.75
2023-02-03T16:42:39.059Z,6.72
2023-02-03T16:52:41.560Z,6.69
2023-02-03T17:02:45.447Z,6.65
2023-02-03T17:12:47.985Z,6.70
2023-02-03T17:22:54.375Z,6.75
2023-02-03T17:32:59.301Z,6.71
2023-02-03T17:53:24.730Z,6.70
2023-02-03T18:03:28.523Z,6.70
2023-02-03T18:13:33.190Z,6.61
2023-02-03T18:23:37.380Z,6.55
2023-02-03T18:33:39.942Z,6.53
2023-02-03T18:43:44.203Z,6.39
2023-02-03T18:53:48.972Z,6.36
2023-02-03T19:03:53.336Z,6.39
2023-02-03T19:13:55.998Z,6.35
2023-02-03T19:23:59.859Z,6.42
2023-02-03T19:34:04.239Z,6.30
2023-02-03T19:44:08.341Z,6.29
2023-02-03T19:54:12.187Z,6.22
2023-02-03T20:04:16.048Z,6.32
2023-02-03T20:14:19.161Z,6.37
2023-02-03T20:24:36.728Z,6.31
2023-02-03T20:34:41.543Z,6.33
2023-02-03T20:44:44.078Z,6.26
2023-02-03T20:54:47.951Z,6.32
2023-02-03T21:05:00.206Z,6.33
2023-02-03T21:15:04.021Z,6.40
2023-02-03T21:25:07.561Z,6.30
2023-02-03T21:35:24.056Z,6.44
2023-02-03T21:45:35.545Z,6.38
2023-02-03T21:55:40.914Z,6.48
2023-02-03T22:05:43.391Z,6.44
2023-02-03T22:15:48.848Z,6.56
2023-02-03T22:25:51.686Z,6.50
2023-02-03T22:35:55.612Z,6.57
2023-02-03T22:45:58.403Z,6.57
2023-02-03T22:56:02.353Z,6.58
2023-02-03T23:06:04.968Z,6.63
2023-02-03T23:16:09.085Z,6.60
2023-02-03T23:26:11.552Z,6.67
2023-02-03T23:36:15.440Z,6.59
2023-02-03T23:46:17.974Z,6.64
2023-02-03T23:56:22.093Z,6.60
